Airfield :
LOGIN :

Register | Disclaimer

   EN    FR    IT 

 










Legend :    VFR   Marginal VFR   IFR   Intensive IFR   Very Intensive IFR
Visi :
Ceiling :
>= 8 km
>= 3000ft
5 to 8 km
1000 to 3000 ft
1500m to 5 km
500 to 1000 ft
800 to 1500m
200 to 500 ft
< 800m
< 200 ft
Symbols :   Thunderstorms  Fog  Heavy snow  Heavy precipitations  Wind > 20 kt
SIGMETs :     Misc.  Thunderstorms  Icing  Turbulence  Mountain Waves  Volcanic Ashes






- Airport Elevation : 132 ft


EGXE - RAF Leeming

CURRENT METAR :
  • 212350Z AUTO 16005KT 9999 // OVC025/// 06/03 Q1032

EXPIRED METARs :
  • 212320Z AUTO 15003KT 9999 -RADZ OVC026/// 06/03 Q1032
  • 212250Z AUTO 12001KT 9999 -RA OVC027/// 06/03 Q1032
  • 212220Z AUTO 05001KT 9999 -RA OVC028/// 06/03 Q1032
  • 212150Z AUTO 05001KT 9999 -RA BKN030/// BKN041/// 06/03 Q1032
  • 212120Z AUTO 06002KT 9999 -RA OVC031/// 06/03 Q1033
  • 212050Z AUTO 03003KT 9999 -RA OVC031/// 06/03 Q1032
  • 212020Z AUTO 04004KT 9999 -RA OVC031/// 06/03 Q1032
  • 211950Z AUTO 04004KT 9999 -RA OVC031/// 07/02 Q1032
  • 211920Z AUTO 05005KT 9999 -RA BKN034/// BKN044/// 08/02 Q1032

Expired Forecast.



MET'MAP, your aeronautical weather chart ! - Copyright ORBIFLY December 2007 - Disclaimer

ORBIFLY MET'MAP TEAM :

Programming & Development : Alexandra Zaïnal
Original concept : Baudouin d'Aumeries
Technical & hardware support : Manuel Goepfert
Assistance : Marc-Olivier Méhu




SOURCES & CREDITS :

   NOAA